sensor_id;sensor_type;location;lat;lon;timestamp;temperature;humidity
23869;DHT22;12115;47.128;15.422;2024-01-15T00:01:06;-4.60;99.90
23869;DHT22;12115;47.128;15.422;2024-01-15T00:03:32;-4.60;99.90
23869;DHT22;12115;47.128;15.422;2024-01-15T00:05:59;-4.70;99.90
23869;DHT22;12115;47.128;15.422;2024-01-15T00:08:25;-4.70;99.90
23869;DHT22;12115;47.128;15.422;2024-01-15T00:10:51;-4.70;99.90
23869;DHT22;12115;47.128;15.422;2024-01-15T00:13:17;-4.80;99.90
23869;DHT22;12115;47.128;15.422;2024-01-15T00:15:43;-4.90;99.90
23869;DHT22;12115;47.128;15.422;2024-01-15T00:18:10;-4.90;99.90
23869;DHT22;12115;47.128;15.422;2024-01-15T00:20:36;-4.90;99.90
23869;DHT22;12115;47.128;15.422;2024-01-15T00:23:02;-4.90;99.90
23869;DHT22;12115;47.128;15.422;2024-01-15T00:25:28;-4.90;99.90
23869;DHT22;12115;47.128;15.422;2024-01-15T00:27:55;-5.00;99.90
23869;DHT22;12115;47.128;15.422;2024-01-15T00:30:21;-5.00;99.90
23869;DHT22;12115;47.128;15.422;2024-01-15T00:32:47;-5.00;99.90
23869;DHT22;12115;47.128;15.422;2024-01-15T00:35:13;-5.10;99.90
23869;DHT22;12115;47.128;15.422;2024-01-15T00:37:39;-5.20;99.90
23869;DHT22;12115;47.128;15.422;2024-01-15T00:40:06;-5.20;99.90
23869;DHT22;12115;47.128;15.422;2024-01-15T00:42:33;-5.10;99.90
23869;DHT22;12115;47.128;15.422;2024-01-15T00:45:00;-5.10;99.90
23869;DHT22;12115;47.128;15.422;2024-01-15T00:47:26;-5.20;99.90
23869;DHT22;12115;47.128;15.422;2024-01-15T00:49:52;-5.20;99.90
23869;DHT22;12115;47.128;15.422;2024-01-15T00:52:18;-5.20;99.90
23869;DHT22;12115;47.128;15.422;2024-01-15T00:54:44;-5.20;99.90
23869;DHT22;12115;47.128;15.422;2024-01-15T00:57:11;-5.20;99.90
23869;DHT22;12115;47.128;15.422;2024-01-15T00:59:37;-5.20;99.90
23869;DHT22;12115;47.128;15.422;2024-01-15T01:02:03;-5.20;99.90
23869;DHT22;12115;47.128;15.422;2024-01-15T01:04:30;-5.20;99.90
23869;DHT22;12115;47.128;15.422;2024-01-15T01:06:56;-5.20;99.90
23869;DHT22;12115;47.128;15.422;2024-01-15T01:09:22;-5.30;99.90
23869;DHT22;12115;47.128;15.422;2024-01-15T01:11:48;-5.30;99.90
23869;DHT22;12115;47.128;15.422;2024-01-15T01:14:15;-5.30;99.90
23869;DHT22;12115;47.128;15.422;2024-01-15T01:16:45;-5.30;99.90
23869;DHT22;12115;47.128;15.422;2024-01-15T01:19:16;-5.30;99.90
23869;DHT22;12115;47.128;15.422;2024-01-15T01:21:44;-5.30;99.90
23869;DHT22;12115;47.128;15.422;2024-01-15T01:24:11;-5.30;99.90
23869;DHT22;12115;47.128;15.422;2024-01-15T01:26:38;-5.30;99.90
23869;DHT22;12115;47.128;15.422;2024-01-15T01:29:04;-5.40;99.90
23869;DHT22;12115;47.128;15.422;2024-01-15T01:31:31;-5.40;99.90
23869;DHT22;12115;47.128;15.422;2024-01-15T01:33:58;-5.40;99.90
23869;DHT22;12115;47.128;15.422;2024-01-15T01:36:25;-5.40;99.90
23869;DHT22;12115;47.128;15.422;2024-01-15T01:38:52;-5.40;99.90
23869;DHT22;12115;47.128;15.422;2024-01-15T01:41:19;-5.40;99.90
23869;DHT22;12115;47.128;15.422;2024-01-15T01:43:46;-5.40;99.90
23869;DHT22;12115;47.128;15.422;2024-01-15T01:46:12;-5.30;99.90
23869;DHT22;12115;47.128;15.422;2024-01-15T01:48:39;-5.30;99.90
23869;DHT22;12115;47.128;15.422;2024-01-15T01:51:06;-5.30;99.90
23869;DHT22;12115;47.128;15.422;2024-01-15T01:53:34;-5.30;99.90
23869;DHT22;12115;47.128;15.422;2024-01-15T01:56:01;-5.30;99.90
23869;DHT22;12115;47.128;15.422;2024-01-15T01:58:29;-5.30;99.90
23869;DHT22;12115;47.128;15.422;2024-01-15T02:00:55;-5.30;99.90
23869;DHT22;12115;47.128;15.422;2024-01-15T02:03:22;-5.30;99.90
23869;DHT22;12115;47.128;15.422;2024-01-15T02:05:49;-5.30;99.90
23869;DHT22;12115;47.128;15.422;2024-01-15T02:08:16;-5.30;99.90
23869;DHT22;12115;47.128;15.422;2024-01-15T02:10:42;-5.30;99.90
23869;DHT22;12115;47.128;15.422;2024-01-15T02:13:10;-5.30;99.90
23869;DHT22;12115;47.128;15.422;2024-01-15T02:15:37;-5.30;99.90
23869;DHT22;12115;47.128;15.422;2024-01-15T02:18:05;-5.20;99.90
23869;DHT22;12115;47.128;15.422;2024-01-15T02:20:32;-5.30;99.90
23869;DHT22;12115;47.128;15.422;2024-01-15T02:23:09;-5.30;99.90
23869;DHT22;12115;47.128;15.422;2024-01-15T02:25:44;-5.30;99.90
23869;DHT22;12115;47.128;15.422;2024-01-15T02:28:12;-5.30;99.90
23869;DHT22;12115;47.128;15.422;2024-01-15T02:30:40;-5.30;99.90
23869;DHT22;12115;47.128;15.422;2024-01-15T02:33:08;-5.30;99.90
23869;DHT22;12115;47.128;15.422;2024-01-15T02:35:37;-5.30;99.90
23869;DHT22;12115;47.128;15.422;2024-01-15T02:38:05;-5.20;99.90
23869;DHT22;12115;47.128;15.422;2024-01-15T02:40:33;-5.20;99.90
23869;DHT22;12115;47.128;15.422;2024-01-15T02:43:01;-5.20;99.90
23869;DHT22;12115;47.128;15.422;2024-01-15T02:45:30;-5.20;99.90
23869;DHT22;12115;47.128;15.422;2024-01-15T02:47:57;-5.20;99.90
23869;DHT22;12115;47.128;15.422;2024-01-15T02:50:25;-5.20;99.90
23869;DHT22;12115;47.128;15.422;2024-01-15T02:52:52;-5.20;99.90
23869;DHT22;12115;47.128;15.422;2024-01-15T02:55:19;-5.20;99.90
23869;DHT22;12115;47.128;15.422;2024-01-15T02:57:46;-5.10;99.90
23869;DHT22;12115;47.128;15.422;2024-01-15T03:00:14;-5.10;99.90
23869;DHT22;12115;47.128;15.422;2024-01-15T03:02:45;-5.10;99.90
23869;DHT22;12115;47.128;15.422;2024-01-15T03:05:14;-5.10;99.90
23869;DHT22;12115;47.128;15.422;2024-01-15T03:07:42;-5.10;99.90
23869;DHT22;12115;47.128;15.422;2024-01-15T03:10:09;-5.10;99.90
23869;DHT22;12115;47.128;15.422;2024-01-15T03:12:35;-5.10;99.90
23869;DHT22;12115;47.128;15.422;2024-01-15T03:15:02;-5.10;99.90
23869;DHT22;12115;47.128;15.422;2024-01-15T03:17:28;-5.00;99.90
23869;DHT22;12115;47.128;15.422;2024-01-15T03:19:54;-5.00;99.90
23869;DHT22;12115;47.128;15.422;2024-01-15T03:22:21;-5.00;99.90
23869;DHT22;12115;47.128;15.422;2024-01-15T03:24:47;-4.90;99.90
23869;DHT22;12115;47.128;15.422;2024-01-15T03:27:13;-5.00;99.90
23869;DHT22;12115;47.128;15.422;2024-01-15T03:29:41;-5.00;99.90
23869;DHT22;12115;47.128;15.422;2024-01-15T03:32:07;-5.00;99.90
23869;DHT22;12115;47.128;15.422;2024-01-15T03:34:33;-4.90;99.90
23869;DHT22;12115;47.128;15.422;2024-01-15T03:36:59;-4.90;99.90
23869;DHT22;12115;47.128;15.422;2024-01-15T03:39:26;-4.90;99.90
23869;DHT22;12115;47.128;15.422;2024-01-15T03:41:52;-4.80;99.90
23869;DHT22;12115;47.128;15.422;2024-01-15T03:44:18;-4.80;99.90
23869;DHT22;12115;47.128;15.422;2024-01-15T03:46:44;-4.80;99.90
23869;DHT22;12115;47.128;15.422;2024-01-15T03:49:10;-4.80;99.90
23869;DHT22;12115;47.128;15.422;2024-01-15T03:52:17;-4.80;99.90
23869;DHT22;12115;47.128;15.422;2024-01-15T03:54:43;-4.80;99.90
23869;DHT22;12115;47.128;15.422;2024-01-15T03:57:09;-4.80;99.90
23869;DHT22;12115;47.128;15.422;2024-01-15T03:59:36;-4.70;99.90
23869;DHT22;12115;47.128;15.422;2024-01-15T04:02:02;-4.70;99.90
23869;DHT22;12115;47.128;15.422;2024-01-15T04:04:28;-4.70;99.90
23869;DHT22;12115;47.128;15.422;2024-01-15T04:06:54;-4.70;99.90
23869;DHT22;12115;47.128;15.422;2024-01-15T04:09:21;-4.60;99.90
23869;DHT22;12115;47.128;15.422;2024-01-15T04:11:47;-4.60;99.90
23869;DHT22;12115;47.128;15.422;2024-01-15T04:14:13;-4.60;99.90
23869;DHT22;12115;47.128;15.422;2024-01-15T04:16:39;-4.60;99.90
23869;DHT22;12115;47.128;15.422;2024-01-15T04:19:05;-4.50;99.90
23869;DHT22;12115;47.128;15.422;2024-01-15T04:21:32;-4.50;99.90
23869;DHT22;12115;47.128;15.422;2024-01-15T04:23:58;-4.50;99.90
23869;DHT22;12115;47.128;15.422;2024-01-15T04:26:24;-4.50;99.90
23869;DHT22;12115;47.128;15.422;2024-01-15T04:28:50;-4.40;99.90
23869;DHT22;12115;47.128;15.422;2024-01-15T04:31:21;-4.40;99.90
23869;DHT22;12115;47.128;15.422;2024-01-15T04:33:47;-4.40;99.90
23869;DHT22;12115;47.128;15.422;2024-01-15T04:36:13;-4.40;99.90
23869;DHT22;12115;47.128;15.422;2024-01-15T04:38:39;-4.40;99.90
23869;DHT22;12115;47.128;15.422;2024-01-15T04:41:06;-4.40;99.90
23869;DHT22;12115;47.128;15.422;2024-01-15T04:43:32;-4.40;99.90
23869;DHT22;12115;47.128;15.422;2024-01-15T04:45:58;-4.30;99.90
23869;DHT22;12115;47.128;15.422;2024-01-15T04:48:25;-4.30;99.90
23869;DHT22;12115;47.128;15.422;2024-01-15T04:50:51;-4.30;99.90
23869;DHT22;12115;47.128;15.422;2024-01-15T04:53:17;-4.20;99.90
23869;DHT22;12115;47.128;15.422;2024-01-15T04:55:43;-4.30;99.90
23869;DHT22;12115;47.128;15.422;2024-01-15T04:58:09;-4.20;99.90
23869;DHT22;12115;47.128;15.422;2024-01-15T05:00:36;-4.20;99.90
23869;DHT22;12115;47.128;15.422;2024-01-15T05:03:02;-4.20;99.90
23869;DHT22;12115;47.128;15.422;2024-01-15T05:05:28;-4.10;99.90
23869;DHT22;12115;47.128;15.422;2024-01-15T05:07:55;-4.10;99.90
23869;DHT22;12115;47.128;15.422;2024-01-15T05:10:21;-4.10;99.90
23869;DHT22;12115;47.128;15.422;2024-01-15T05:12:47;-4.10;99.90
23869;DHT22;12115;47.128;15.422;2024-01-15T05:15:13;-4.10;99.90
23869;DHT22;12115;47.128;15.422;2024-01-15T05:17:39;-4.10;99.90
23869;DHT22;12115;47.128;15.422;2024-01-15T05:20:06;-4.10;99.90
23869;DHT22;12115;47.128;15.422;2024-01-15T05:22:33;-4.10;99.90
23869;DHT22;12115;47.128;15.422;2024-01-15T05:24:59;-4.10;99.90
23869;DHT22;12115;47.128;15.422;2024-01-15T05:27:25;-4.10;99.90
23869;DHT22;12115;47.128;15.422;2024-01-15T05:29:52;-4.00;99.90
23869;DHT22;12115;47.128;15.422;2024-01-15T05:32:18;-4.00;99.90
23869;DHT22;12115;47.128;15.422;2024-01-15T05:34:45;-4.10;99.90
23869;DHT22;12115;47.128;15.422;2024-01-15T05:37:11;-4.10;99.90
23869;DHT22;12115;47.128;15.422;2024-01-15T05:39:38;-4.00;99.90
23869;DHT22;12115;47.128;15.422;2024-01-15T05:42:04;-4.00;99.90
23869;DHT22;12115;47.128;15.422;2024-01-15T05:44:30;-4.00;99.90
23869;DHT22;12115;47.128;15.422;2024-01-15T05:46:57;-4.00;99.90
23869;DHT22;12115;47.128;15.422;2024-01-15T05:49:23;-3.90;99.90
23869;DHT22;12115;47.128;15.422;2024-01-15T05:52:02;-4.00;99.90
23869;DHT22;12115;47.128;15.422;2024-01-15T05:55:04;-4.00;99.90
23869;DHT22;12115;47.128;15.422;2024-01-15T05:57:31;-4.00;99.90
23869;DHT22;12115;47.128;15.422;2024-01-15T06:00:04;-4.00;99.90
23869;DHT22;12115;47.128;15.422;2024-01-15T06:02:54;-4.00;99.90
23869;DHT22;12115;47.128;15.422;2024-01-15T06:05:21;-4.00;99.90
23869;DHT22;12115;47.128;15.422;2024-01-15T06:07:52;-4.00;99.90
23869;DHT22;12115;47.128;15.422;2024-01-15T06:10:23;-4.00;99.90
23869;DHT22;12115;47.128;15.422;2024-01-15T06:12:51;-4.00;99.90
23869;DHT22;12115;47.128;15.422;2024-01-15T06:15:22;-4.00;99.90
23869;DHT22;12115;47.128;15.422;2024-01-15T06:18:10;-4.00;99.90
23869;DHT22;12115;47.128;15.422;2024-01-15T06:20:38;-4.10;99.90
23869;DHT22;12115;47.128;15.422;2024-01-15T06:23:08;-4.10;99.90
23869;DHT22;12115;47.128;15.422;2024-01-15T06:25:36;-4.10;99.90
23869;DHT22;12115;47.128;15.422;2024-01-15T06:28:03;-4.10;99.90
23869;DHT22;12115;47.128;15.422;2024-01-15T06:30:31;-4.20;99.90
23869;DHT22;12115;47.128;15.422;2024-01-15T06:32:59;-4.10;99.90
23869;DHT22;12115;47.128;15.422;2024-01-15T06:35:26;-4.20;99.90
23869;DHT22;12115;47.128;15.422;2024-01-15T06:37:53;-4.20;99.90
23869;DHT22;12115;47.128;15.422;2024-01-15T06:40:21;-4.20;99.90
23869;DHT22;12115;47.128;15.422;2024-01-15T06:42:47;-4.20;99.90
23869;DHT22;12115;47.128;15.422;2024-01-15T06:45:14;-4.20;99.90
23869;DHT22;12115;47.128;15.422;2024-01-15T06:47:41;-4.20;99.90
23869;DHT22;12115;47.128;15.422;2024-01-15T06:50:08;-4.30;99.90
23869;DHT22;12115;47.128;15.422;2024-01-15T06:52:35;-4.30;99.90
23869;DHT22;12115;47.128;15.422;2024-01-15T06:55:01;-4.30;99.90
23869;DHT22;12115;47.128;15.422;2024-01-15T06:57:29;-4.30;99.90
23869;DHT22;12115;47.128;15.422;2024-01-15T06:59:55;-4.30;99.90
23869;DHT22;12115;47.128;15.422;2024-01-15T07:02:23;-4.30;99.90
23869;DHT22;12115;47.128;15.422;2024-01-15T07:04:50;-4.30;99.90
23869;DHT22;12115;47.128;15.422;2024-01-15T07:07:17;-4.30;99.90
23869;DHT22;12115;47.128;15.422;2024-01-15T07:09:44;-4.20;99.90
23869;DHT22;12115;47.128;15.422;2024-01-15T07:12:10;-4.30;99.90
23869;DHT22;12115;47.128;15.422;2024-01-15T07:14:37;-4.30;99.90
23869;DHT22;12115;47.128;15.422;2024-01-15T07:17:07;-4.20;99.90
23869;DHT22;12115;47.128;15.422;2024-01-15T07:19:34;-4.10;99.90
23869;DHT22;12115;47.128;15.422;2024-01-15T07:22:01;-4.10;99.90
23869;DHT22;12115;47.128;15.422;2024-01-15T07:24:28;-3.90;99.90
23869;DHT22;12115;47.128;15.422;2024-01-15T07:26:55;-3.50;99.90
23869;DHT22;12115;47.128;15.422;2024-01-15T07:29:28;-3.20;99.90
23869;DHT22;12115;47.128;15.422;2024-01-15T07:31:55;-2.70;99.90
23869;DHT22;12115;47.128;15.422;2024-01-15T07:34:23;-2.30;99.90
23869;DHT22;12115;47.128;15.422;2024-01-15T07:36:50;-1.90;99.90
23869;DHT22;12115;47.128;15.422;2024-01-15T07:39:18;-1.50;99.90
23869;DHT22;12115;47.128;15.422;2024-01-15T07:41:46;-1.20;99.90
23869;DHT22;12115;47.128;15.422;2024-01-15T07:44:13;-0.80;99.90
23869;DHT22;12115;47.128;15.422;2024-01-15T07:46:44;-0.40;99.90
23869;DHT22;12115;47.128;15.422;2024-01-15T07:49:12;0.00;99.90
23869;DHT22;12115;47.128;15.422;2024-01-15T07:51:40;0.40;99.90
23869;DHT22;12115;47.128;15.422;2024-01-15T07:54:07;0.70;99.90
23869;DHT22;12115;47.128;15.422;2024-01-15T07:56:52;1.00;99.90
23869;DHT22;12115;47.128;15.422;2024-01-15T07:59:19;1.40;99.90
23869;DHT22;12115;47.128;15.422;2024-01-15T08:01:47;1.70;99.90
23869;DHT22;12115;47.128;15.422;2024-01-15T08:04:14;2.00;99.90
23869;DHT22;12115;47.128;15.422;2024-01-15T08:06:41;2.30;99.90
23869;DHT22;12115;47.128;15.422;2024-01-15T08:09:08;2.50;99.90
23869;DHT22;12115;47.128;15.422;2024-01-15T08:11:35;2.70;99.90
23869;DHT22;12115;47.128;15.422;2024-01-15T08:14:02;2.80;99.90
23869;DHT22;12115;47.128;15.422;2024-01-15T08:16:29;3.00;99.90
23869;DHT22;12115;47.128;15.422;2024-01-15T08:18:56;3.30;99.90
23869;DHT22;12115;47.128;15.422;2024-01-15T08:21:24;3.70;99.90
23869;DHT22;12115;47.128;15.422;2024-01-15T08:23:50;4.00;99.90
23869;DHT22;12115;47.128;15.422;2024-01-15T08:26:19;4.30;99.90
23869;DHT22;12115;47.128;15.422;2024-01-15T08:28:46;4.40;99.90
23869;DHT22;12115;47.128;15.422;2024-01-15T08:31:13;4.60;99.90
23869;DHT22;12115;47.128;15.422;2024-01-15T08:33:41;4.70;99.90
23869;DHT22;12115;47.128;15.422;2024-01-15T08:36:09;4.90;99.90
23869;DHT22;12115;47.128;15.422;2024-01-15T08:38:36;5.10;99.90
23869;DHT22;12115;47.128;15.422;2024-01-15T08:41:03;5.40;99.90
23869;DHT22;12115;47.128;15.422;2024-01-15T08:43:30;5.60;99.90
23869;DHT22;12115;47.128;15.422;2024-01-15T08:45:59;5.60;99.90
23869;DHT22;12115;47.128;15.422;2024-01-15T08:48:30;5.90;99.90
23869;DHT22;12115;47.128;15.422;2024-01-15T08:50:59;5.80;99.90
23869;DHT22;12115;47.128;15.422;2024-01-15T08:53:30;6.00;99.90
23869;DHT22;12115;47.128;15.422;2024-01-15T08:56:01;6.20;99.90
23869;DHT22;12115;47.128;15.422;2024-01-15T08:58:31;6.40;99.90
23869;DHT22;12115;47.128;15.422;2024-01-15T09:01:01;6.20;99.90
23869;DHT22;12115;47.128;15.422;2024-01-15T09:03:32;6.00;99.90
23869;DHT22;12115;47.128;15.422;2024-01-15T09:09:37;6.50;99.90
23869;DHT22;12115;47.128;15.422;2024-01-15T09:16:17;6.40;99.90
23869;DHT22;12115;47.128;15.422;2024-01-15T09:28:11;7.00;99.90
23869;DHT22;12115;47.128;15.422;2024-01-15T09:55:36;7.10;99.90
23869;DHT22;12115;47.128;15.422;2024-01-15T09:58:50;7.20;99.90
23869;DHT22;12115;47.128;15.422;2024-01-15T10:06:27;7.70;99.90
23869;DHT22;12115;47.128;15.422;2024-01-15T10:10:08;7.70;99.90
23869;DHT22;12115;47.128;15.422;2024-01-15T10:17:44;8.10;99.90
23869;DHT22;12115;47.128;15.422;2024-01-15T10:23:53;8.40;99.90
23869;DHT22;12115;47.128;15.422;2024-01-15T10:27:06;8.60;99.90
23869;DHT22;12115;47.128;15.422;2024-01-15T10:29:49;8.60;99.20
23869;DHT22;12115;47.128;15.422;2024-01-15T10:33:05;8.70;99.50
23869;DHT22;12115;47.128;15.422;2024-01-15T10:35:39;8.90;99.10
23869;DHT22;12115;47.128;15.422;2024-01-15T10:38:25;8.90;98.50
23869;DHT22;12115;47.128;15.422;2024-01-15T10:40:52;9.40;97.70
23869;DHT22;12115;47.128;15.422;2024-01-15T10:43:23;9.70;97.60
23869;DHT22;12115;47.128;15.422;2024-01-15T10:45:56;10.20;96.90
23869;DHT22;12115;47.128;15.422;2024-01-15T10:48:24;10.70;96.40
23869;DHT22;12115;47.128;15.422;2024-01-15T10:50:52;11.30;94.80
23869;DHT22;12115;47.128;15.422;2024-01-15T10:53:21;11.70;93.70
23869;DHT22;12115;47.128;15.422;2024-01-15T10:56:17;12.20;92.70
23869;DHT22;12115;47.128;15.422;2024-01-15T10:58:45;12.50;91.80
23869;DHT22;12115;47.128;15.422;2024-01-15T11:01:13;12.70;91.20
23869;DHT22;12115;47.128;15.422;2024-01-15T11:03:43;13.00;89.50
23869;DHT22;12115;47.128;15.422;2024-01-15T11:06:19;12.70;90.60
23869;DHT22;12115;47.128;15.422;2024-01-15T11:08:50;12.50;88.90
23869;DHT22;12115;47.128;15.422;2024-01-15T11:11:17;12.70;90.00
23869;DHT22;12115;47.128;15.422;2024-01-15T11:13:46;12.80;89.40
23869;DHT22;12115;47.128;15.422;2024-01-15T11:16:13;12.80;86.30
23869;DHT22;12115;47.128;15.422;2024-01-15T11:18:48;12.50;86.40
23869;DHT22;12115;47.128;15.422;2024-01-15T11:21:29;12.60;86.30
23869;DHT22;12115;47.128;15.422;2024-01-15T11:23:59;12.90;86.10
23869;DHT22;12115;47.128;15.422;2024-01-15T11:26:27;13.20;83.50
23869;DHT22;12115;47.128;15.422;2024-01-15T11:28:55;13.80;81.80
23869;DHT22;12115;47.128;15.422;2024-01-15T11:31:27;14.20;81.50
23869;DHT22;12115;47.128;15.422;2024-01-15T11:33:55;14.00;78.70
23869;DHT22;12115;47.128;15.422;2024-01-15T11:42:00;11.80;84.60
23869;DHT22;12115;47.128;15.422;2024-01-15T11:44:28;11.30;85.00
23869;DHT22;12115;47.128;15.422;2024-01-15T11:49:29;10.20;86.60
23869;DHT22;12115;47.128;15.422;2024-01-15T11:52:02;10.10;86.70
23869;DHT22;12115;47.128;15.422;2024-01-15T11:54:31;9.70;86.60
23869;DHT22;12115;47.128;15.422;2024-01-15T11:57:04;9.40;87.90
23869;DHT22;12115;47.128;15.422;2024-01-15T11:59:35;9.30;88.10
23869;DHT22;12115;47.128;15.422;2024-01-15T12:02:03;9.20;87.80
23869;DHT22;12115;47.128;15.422;2024-01-15T12:04:33;9.00;88.70
23869;DHT22;12115;47.128;15.422;2024-01-15T12:07:01;8.90;88.60
23869;DHT22;12115;47.128;15.422;2024-01-15T12:09:30;8.80;88.50
23869;DHT22;12115;47.128;15.422;2024-01-15T12:12:01;8.60;88.60
23869;DHT22;12115;47.128;15.422;2024-01-15T12:14:33;8.60;89.80
23869;DHT22;12115;47.128;15.422;2024-01-15T12:17:02;8.40;89.10
23869;DHT22;12115;47.128;15.422;2024-01-15T12:19:32;8.20;88.40
23869;DHT22;12115;47.128;15.422;2024-01-15T12:21:59;8.10;89.10
23869;DHT22;12115;47.128;15.422;2024-01-15T12:24:28;8.00;90.10
23869;DHT22;12115;47.128;15.422;2024-01-15T12:26:56;8.10;90.10
23869;DHT22;12115;47.128;15.422;2024-01-15T12:29:25;8.10;90.40
23869;DHT22;12115;47.128;15.422;2024-01-15T12:31:53;8.10;90.00
23869;DHT22;12115;47.128;15.422;2024-01-15T12:34:28;8.00;90.40
23869;DHT22;12115;47.128;15.422;2024-01-15T12:36:59;7.90;90.40
23869;DHT22;12115;47.128;15.422;2024-01-15T12:39:31;7.70;89.70
23869;DHT22;12115;47.128;15.422;2024-01-15T12:42:03;7.60;90.00
23869;DHT22;12115;47.128;15.422;2024-01-15T12:44:30;7.60;90.30
23869;DHT22;12115;47.128;15.422;2024-01-15T12:46:58;7.60;90.50
23869;DHT22;12115;47.128;15.422;2024-01-15T12:49:25;7.60;90.60
23869;DHT22;12115;47.128;15.422;2024-01-15T12:51:54;7.70;90.70
23869;DHT22;12115;47.128;15.422;2024-01-15T12:54:20;7.70;90.50
23869;DHT22;12115;47.128;15.422;2024-01-15T12:56:47;7.60;90.40
23869;DHT22;12115;47.128;15.422;2024-01-15T12:59:14;7.60;90.10
23869;DHT22;12115;47.128;15.422;2024-01-15T13:01:41;7.60;90.20
23869;DHT22;12115;47.128;15.422;2024-01-15T13:04:08;7.50;90.30
23869;DHT22;12115;47.128;15.422;2024-01-15T13:06:35;7.30;90.60
23869;DHT22;12115;47.128;15.422;2024-01-15T13:09:03;7.20;90.40
23869;DHT22;12115;47.128;15.422;2024-01-15T13:11:32;7.10;90.50
23869;DHT22;12115;47.128;15.422;2024-01-15T13:13:59;7.00;90.80
23869;DHT22;12115;47.128;15.422;2024-01-15T13:16:26;7.00;90.60
23869;DHT22;12115;47.128;15.422;2024-01-15T13:18:56;6.90;90.50
23869;DHT22;12115;47.128;15.422;2024-01-15T13:21:24;6.90;90.90
23869;DHT22;12115;47.128;15.422;2024-01-15T13:23:52;6.90;90.80
23869;DHT22;12115;47.128;15.422;2024-01-15T13:26:21;6.80;90.90
23869;DHT22;12115;47.128;15.422;2024-01-15T13:28:48;6.80;91.00
23869;DHT22;12115;47.128;15.422;2024-01-15T13:31:16;6.80;91.20
23869;DHT22;12115;47.128;15.422;2024-01-15T13:33:43;6.90;91.40
23869;DHT22;12115;47.128;15.422;2024-01-15T13:36:11;7.00;91.50
23869;DHT22;12115;47.128;15.422;2024-01-15T13:38:38;6.90;91.10
23869;DHT22;12115;47.128;15.422;2024-01-15T13:41:06;6.90;91.50
23869;DHT22;12115;47.128;15.422;2024-01-15T13:43:33;6.90;91.30
23869;DHT22;12115;47.128;15.422;2024-01-15T13:46:01;6.90;91.40
23869;DHT22;12115;47.128;15.422;2024-01-15T13:48:31;6.80;91.40
23869;DHT22;12115;47.128;15.422;2024-01-15T13:50:58;6.70;91.30
23869;DHT22;12115;47.128;15.422;2024-01-15T13:53:25;6.60;91.40
23869;DHT22;12115;47.128;15.422;2024-01-15T13:55:52;6.50;91.40
23869;DHT22;12115;47.128;15.422;2024-01-15T13:58:18;6.50;91.50
23869;DHT22;12115;47.128;15.422;2024-01-15T14:00:45;6.40;91.30
23869;DHT22;12115;47.128;15.422;2024-01-15T14:03:11;6.40;91.50
23869;DHT22;12115;47.128;15.422;2024-01-15T14:05:37;6.40;91.70
23869;DHT22;12115;47.128;15.422;2024-01-15T14:08:04;6.30;91.90
23869;DHT22;12115;47.128;15.422;2024-01-15T14:10:31;6.30;92.20
23869;DHT22;12115;47.128;15.422;2024-01-15T14:12:57;6.30;92.50
23869;DHT22;12115;47.128;15.422;2024-01-15T14:15:23;6.10;92.10
23869;DHT22;12115;47.128;15.422;2024-01-15T14:17:50;6.10;92.10
23869;DHT22;12115;47.128;15.422;2024-01-15T14:20:17;6.00;92.40
23869;DHT22;12115;47.128;15.422;2024-01-15T14:22:47;6.00;92.50
23869;DHT22;12115;47.128;15.422;2024-01-15T14:25:13;5.90;92.50
23869;DHT22;12115;47.128;15.422;2024-01-15T14:27:40;5.90;92.90
23869;DHT22;12115;47.128;15.422;2024-01-15T14:30:06;5.90;93.50
23869;DHT22;12115;47.128;15.422;2024-01-15T14:32:34;6.00;93.70
23869;DHT22;12115;47.128;15.422;2024-01-15T14:35:00;6.00;93.60
23869;DHT22;12115;47.128;15.422;2024-01-15T14:37:27;6.00;93.70
23869;DHT22;12115;47.128;15.422;2024-01-15T14:39:53;6.00;93.90
23869;DHT22;12115;47.128;15.422;2024-01-15T14:42:20;5.90;94.20
23869;DHT22;12115;47.128;15.422;2024-01-15T14:44:46;5.80;94.80
23869;DHT22;12115;47.128;15.422;2024-01-15T14:47:13;5.80;94.90
23869;DHT22;12115;47.128;15.422;2024-01-15T14:49:39;5.80;95.00
23869;DHT22;12115;47.128;15.422;2024-01-15T14:52:05;5.80;95.10
23869;DHT22;12115;47.128;15.422;2024-01-15T14:54:32;5.80;95.00
23869;DHT22;12115;47.128;15.422;2024-01-15T14:56:58;5.70;95.00
23869;DHT22;12115;47.128;15.422;2024-01-15T14:59:24;5.70;95.20
23869;DHT22;12115;47.128;15.422;2024-01-15T15:01:50;5.60;95.20
23869;DHT22;12115;47.128;15.422;2024-01-15T15:04:17;5.60;95.40
23869;DHT22;12115;47.128;15.422;2024-01-15T15:06:43;5.60;95.40
23869;DHT22;12115;47.128;15.422;2024-01-15T15:09:10;5.60;95.70
23869;DHT22;12115;47.128;15.422;2024-01-15T15:11:38;5.60;95.70
23869;DHT22;12115;47.128;15.422;2024-01-15T15:14:05;5.50;96.20
23869;DHT22;12115;47.128;15.422;2024-01-15T15:16:32;5.40;96.80
23869;DHT22;12115;47.128;15.422;2024-01-15T15:18:59;5.40;96.60
23869;DHT22;12115;47.128;15.422;2024-01-15T15:21:26;5.40;96.70
23869;DHT22;12115;47.128;15.422;2024-01-15T15:23:53;5.40;96.60
23869;DHT22;12115;47.128;15.422;2024-01-15T15:26:20;5.20;96.90
23869;DHT22;12115;47.128;15.422;2024-01-15T15:28:46;5.10;97.40
23869;DHT22;12115;47.128;15.422;2024-01-15T15:31:13;5.00;98.30
23869;DHT22;12115;47.128;15.422;2024-01-15T15:33:40;5.00;98.10
23869;DHT22;12115;47.128;15.422;2024-01-15T15:36:07;5.00;98.20
23869;DHT22;12115;47.128;15.422;2024-01-15T15:38:33;4.90;98.40
23869;DHT22;12115;47.128;15.422;2024-01-15T15:41:00;4.80;98.50
23869;DHT22;12115;47.128;15.422;2024-01-15T15:43:26;4.80;98.70
23869;DHT22;12115;47.128;15.422;2024-01-15T15:45:53;4.90;98.60
23869;DHT22;12115;47.128;15.422;2024-01-15T15:48:19;4.80;98.70
23869;DHT22;12115;47.128;15.422;2024-01-15T15:50:45;4.80;98.80
23869;DHT22;12115;47.128;15.422;2024-01-15T15:53:12;4.80;98.90
23869;DHT22;12115;47.128;15.422;2024-01-15T15:55:38;4.80;99.10
23869;DHT22;12115;47.128;15.422;2024-01-15T15:58:05;4.70;99.40
23869;DHT22;12115;47.128;15.422;2024-01-15T16:00:31;4.60;99.50
23869;DHT22;12115;47.128;15.422;2024-01-15T16:02:57;4.60;99.30
23869;DHT22;12115;47.128;15.422;2024-01-15T16:05:24;4.60;99.50
23869;DHT22;12115;47.128;15.422;2024-01-15T16:08:03;4.60;99.60
23869;DHT22;12115;47.128;15.422;2024-01-15T16:10:29;4.50;99.70
23869;DHT22;12115;47.128;15.422;2024-01-15T16:12:55;4.50;99.80
23869;DHT22;12115;47.128;15.422;2024-01-15T16:15:22;4.50;99.80
23869;DHT22;12115;47.128;15.422;2024-01-15T16:17:49;4.50;99.70
23869;DHT22;12115;47.128;15.422;2024-01-15T16:20:35;4.50;99.70
23869;DHT22;12115;47.128;15.422;2024-01-15T16:23:21;4.40;99.90
23869;DHT22;12115;47.128;15.422;2024-01-15T16:26:08;4.20;99.90
23869;DHT22;12115;47.128;15.422;2024-01-15T16:28:34;4.20;99.90
23869;DHT22;12115;47.128;15.422;2024-01-15T16:31:01;4.30;99.90
23869;DHT22;12115;47.128;15.422;2024-01-15T16:33:35;4.30;99.90
23869;DHT22;12115;47.128;15.422;2024-01-15T16:36:01;4.20;99.90